Terminal Aerodrome Forecast
Issued by NWS Sterling, VA

Home | Current Version | Previous Version | Text Only | Print | Product List | Glossary On
Versions: 1 2 3 4 5 6 7 8 9 10 11 12 13 14 15 16 17 18 19 20 21 22 23
000
FTUS41 KLWX 172323
TAFCHO
TAF
KCHO 172323Z 1800/1824 20007KT P6SM SCT008 BKN050
      TEMPO 1801/1803 5SM BR OVC008
     FM180300 20007KT 1 1/2SM BR OVC008
     FM181100 26005KT 1 1/2SM BR BKN035
     FM181200 27005KT P6SM BKN020
     FM181400 29007KT P6SM SCT035
     FM182100 31008KT P6SM FEW250=

USA.gov is the U.S. government's official web portal to all federal, state and local government web resources and services.